East Petersburg, Pennsylvania
Current Conditions -  °F | °C
As of 4:10 AM on Thursday 23 Oct 2014 (Local Time) from KLNS Reporting Station
Overcast Overcast  
Wind Chill: 51°   Ceiling: 5500
Heat Index: 51°   Visibility: 10mi
Dew Point: 42°   Wind: 21mph
Humidity: 71%   Direction: 340°NNW
Pressure: 29.83"   Gusts: 30mph
Location:  40.1°N, 76.35°W
Report Text: KLNS 230810Z AUTO 34018G26KT 10SM FEW029 SCT036 OVC055 11/06 A2983 RMK AO2 PK WND 34026/0809 T01060056
Loading
Personal Weather Stations






























Interactive Weather Map
Tropical Storm Tracking
New forecast layout! Learn more

10-Day Weather Forecast

Advertisements
Track Severe Weather on mobile